Time;durP1;ratioP1;P1;durP2;ratioP2;P2;SDS_P1;SDS_P2;PMS_P1;PMS_P2;Temp;Humidity;BMP_temperature;BMP_pressure;BME280_temperature;BME280_humidity;BME280_pressure;Samples;Min_cycle;Max_cycle;Signal;HPM_P1;HPM_P2
2021/10/13 00:00:13;;;;;;;15.95;15.10;;;15.50;99.90;;;;;;5033799;28;20013;-73
2021/10/13 00:02:41;;;;;;;16.05;15.05;;;15.50;99.90;;;;;;5033879;28;20025;-73
2021/10/13 00:05:10;;;;;;;16.90;15.73;;;15.50;99.90;;;;;;5012678;28;20077;-74
2021/10/13 00:07:37;;;;;;;17.38;15.95;;;15.50;99.90;;;;;;5014106;28;20018;-72
2021/10/13 00:10:05;;;;;;;18.73;17.58;;;15.60;99.90;;;;;;5014043;28;20041;-73
2021/10/13 00:12:34;;;;;;;17.85;16.65;;;15.60;99.90;;;;;;5013907;28;20029;-73
2021/10/13 00:15:07;;;;;;;19.25;18.10;;;15.60;99.90;;;;;;5013982;28;20022;-74
2021/10/13 00:17:35;;;;;;;18.73;17.63;;;15.40;99.90;;;;;;5013913;28;20025;-73
2021/10/13 00:20:04;;;;;;;18.23;17.23;;;15.40;99.90;;;;;;5013898;28;20046;-73
2021/10/13 00:22:32;;;;;;;18.75;17.55;;;15.30;99.90;;;;;;5013799;28;20050;-74
2021/10/13 00:24:59;;;;;;;18.67;17.55;;;15.30;99.90;;;;;;5014049;28;20505;-74
2021/10/13 00:27:27;;;;;;;19.45;18.30;;;15.30;99.90;;;;;;5012475;28;20057;-74
2021/10/13 00:29:54;;;;;;;19.80;18.48;;;15.50;99.90;;;;;;5013753;28;20028;-75
2021/10/13 00:32:22;;;;;;;20.83;19.50;;;15.50;99.90;;;;;;5012403;28;20041;-73
2021/10/13 00:34:49;;;;;;;18.27;17.30;;;15.40;99.90;;;;;;5013623;28;20028;-73
2021/10/13 00:37:16;;;;;;;17.33;16.42;;;15.50;99.90;;;;;;5013560;28;20339;-73
2021/10/13 00:39:44;;;;;;;16.40;15.60;;;15.50;99.90;;;;;;5012207;28;20022;-73
2021/10/13 00:42:11;;;;;;;16.35;15.50;;;15.50;99.90;;;;;;5013339;28;20018;-72
2021/10/13 00:44:38;;;;;;;18.52;17.48;;;15.40;99.90;;;;;;5013465;28;20483;-72
2021/10/13 00:47:06;;;;;;;17.90;16.88;;;15.50;99.90;;;;;;5013465;28;20427;-74
2021/10/13 00:49:33;;;;;;;18.63;17.42;;;15.60;99.90;;;;;;5013426;28;20022;-75
2021/10/13 00:52:03;;;;;;;18.13;17.27;;;15.70;99.90;;;;;;5012822;28;20026;-74
2021/10/13 00:54:31;;;;;;;19.65;18.58;;;15.80;99.90;;;;;;5013358;28;20037;-74
2021/10/13 00:56:58;;;;;;;18.60;17.70;;;15.80;99.90;;;;;;5011951;28;20026;-75
2021/10/13 00:59:26;;;;;;;17.27;16.00;;;15.70;99.90;;;;;;5013218;28;20025;-74
2021/10/13 01:02:01;;;;;;;17.52;16.42;;;15.70;99.90;;;;;;5012094;28;20030;-74
2021/10/13 01:04:47;;;;;;;16.23;15.43;;;15.70;99.90;;;;;;5014394;28;20157;-73
2021/10/13 01:07:28;;;;;;;16.13;15.40;;;15.60;99.90;;;;;;5032916;28;20032;-73
2021/10/13 01:10:05;;;;;;;18.15;17.25;;;15.60;99.90;;;;;;5032678;28;20481;-71
2021/10/13 01:12:55;;;;;;;16.88;16.17;;;15.90;99.90;;;;;;5032707;28;20099;-72
2021/10/13 01:15:28;;;;;;;17.25;16.25;;;15.70;99.90;;;;;;5032575;28;20115;-72
2021/10/13 01:18:22;;;;;;;18.20;17.00;;;15.70;99.90;;;;;;5032694;28;20478;-71
2021/10/13 01:21:25;;;;;;;17.38;16.45;;;15.70;99.90;;;;;;5015064;28;20017;-71
2021/10/13 01:24:10;;;;;;;18.00;16.83;;;15.70;99.90;;;;;;5029763;28;20034;-71
2021/10/13 01:27:04;;;;;;;18.05;16.88;;;16.00;99.90;;;;;;5032613;28;20022;-72
2021/10/13 01:29:36;;;;;;;17.73;16.60;;;16.30;99.90;;;;;;5032540;28;20029;-68
2021/10/13 01:32:16;;;;;;;17.55;16.45;;;16.60;99.90;;;;;;5032530;28;20391;-70
2021/10/13 01:34:47;;;;;;;16.48;15.57;;;16.90;99.90;;;;;;5032590;28;20029;-69
2021/10/13 01:37:41;;;;;;;16.90;15.70;;;17.10;99.90;;;;;;5032462;28;20037;-70
2021/10/13 01:40:13;;;;;;;16.85;15.55;;;17.30;99.90;;;;;;5007696;28;20026;-70
2021/10/13 01:42:43;;;;;;;16.90;15.88;;;17.40;99.90;;;;;;5032438;28;20101;-70
2021/10/13 01:45:11;;;;;;;17.60;16.45;;;17.50;99.90;;;;;;5032890;28;20021;-70
2021/10/13 01:47:40;;;;;;;18.13;16.45;;;17.60;99.90;;;;;;5032468;28;20054;-70
2021/10/13 01:50:09;;;;;;;16.42;15.02;;;17.50;99.90;;;;;;5032395;28;20033;-70
2021/10/13 01:52:39;;;;;;;15.60;14.75;;;17.40;99.90;;;;;;5014536;28;20025;-70
2021/10/13 01:55:08;;;;;;;15.02;13.95;;;17.50;99.90;;;;;;5032148;28;20482;-70
2021/10/13 01:57:37;;;;;;;13.33;12.50;;;17.30;99.90;;;;;;5032336;28;20021;-71
2021/10/13 02:00:07;;;;;;;14.05;13.25;;;17.00;99.90;;;;;;5032187;28;20026;-70
2021/10/13 02:02:36;;;;;;;14.15;13.20;;;16.90;99.90;;;;;;5032231;28;20014;-70
2021/10/13 02:05:06;;;;;;;14.70;13.70;;;16.60;99.90;;;;;;5035355;28;20410;-71
2021/10/13 02:07:34;;;;;;;14.68;13.77;;;16.60;99.90;;;;;;5035979;28;20026;-70
2021/10/13 02:10:06;;;;;;;16.35;15.20;;;17.00;99.90;;;;;;5018148;28;20056;-70
2021/10/13 02:12:36;;;;;;;16.23;15.18;;;17.20;99.90;;;;;;5018160;28;20026;-72
2021/10/13 02:15:06;;;;;;;16.17;15.17;;;17.20;99.90;;;;;;5018036;28;20194;-72
2021/10/13 02:17:50;;;;;;;17.30;16.05;;;17.10;99.90;;;;;;5035821;28;20032;-74
2021/10/13 02:20:19;;;;;;;16.45;15.00;;;17.40;99.90;;;;;;5035790;28;20022;-73
2021/10/13 02:22:53;;;;;;;16.70;15.60;;;17.60;99.90;;;;;;5035774;28;20049;-73
2021/10/13 02:25:20;;;;;;;16.52;15.32;;;17.80;99.90;;;;;;5017967;28;20331;-73
2021/10/13 02:27:57;;;;;;;17.15;15.45;;;17.90;99.90;;;;;;5035683;28;20025;-73
2021/10/13 02:30:24;;;;;;;18.60;16.88;;;17.80;99.90;;;;;;5035576;28;20018;-74
2021/10/13 02:32:51;;;;;;;16.73;15.23;;;18.00;99.90;;;;;;5035582;28;20117;-73
2021/10/13 02:35:19;;;;;;;17.27;15.73;;;18.10;99.90;;;;;;5035666;28;20033;-72
2021/10/13 02:37:46;;;;;;;15.30;14.02;;;18.40;99.90;;;;;;5035188;28;20546;-72
2021/10/13 02:40:14;;;;;;;15.35;14.10;;;18.40;99.90;;;;;;5035555;28;20056;-73
2021/10/13 02:42:41;;;;;;;14.63;13.50;;;18.40;99.90;;;;;;5035508;28;20018;-73
2021/10/13 02:45:09;;;;;;;14.27;13.35;;;18.30;99.90;;;;;;5035453;28;20530;-73
2021/10/13 02:47:48;;;;;;;15.18;14.00;;;18.20;99.90;;;;;;5035600;28;20100;-74
2021/10/13 02:50:24;;;;;;;15.00;13.70;;;18.10;99.90;;;;;;5035540;28;20076;-73
2021/10/13 02:53:09;;;;;;;15.73;14.50;;;18.00;99.90;;;;;;5035570;28;20140;-73
2021/10/13 02:56:07;;;;;;;15.75;14.50;;;18.10;99.90;;;;;;5035245;28;20025;-73
2021/10/13 02:58:39;;;;;;;15.20;14.20;;;18.00;99.90;;;;;;5035556;28;20153;-73
2021/10/13 03:01:12;;;;;;;14.20;13.10;;;18.00;99.90;;;;;;5035291;28;20029;-73
2021/10/13 03:03:46;;;;;;;16.10;14.45;;;18.00;99.90;;;;;;5035197;28;20021;-73
2021/10/13 03:06:16;;;;;;;14.82;13.45;;;18.00;99.90;;;;;;5035042;28;20045;-73
2021/10/13 03:08:48;;;;;;;15.18;14.07;;;17.90;99.90;;;;;;5035249;28;20087;-73
2021/10/13 03:11:19;;;;;;;15.35;14.07;;;17.80;99.90;;;;;;5034998;28;20482;-74
2021/10/13 03:13:50;;;;;;;15.73;14.32;;;17.80;99.90;;;;;;5034680;28;20079;-74
2021/10/13 03:16:20;;;;;;;16.73;15.02;;;17.80;99.90;;;;;;5017046;28;20079;-74
2021/10/13 03:18:47;;;;;;;16.02;14.90;;;17.80;99.90;;;;;;5034911;28;20036;-74
2021/10/13 03:21:16;;;;;;;15.60;14.20;;;17.90;99.90;;;;;;5034874;28;20386;-73
2021/10/13 03:23:44;;;;;;;15.88;14.30;;;18.00;99.90;;;;;;5034764;28;20035;-73
2021/10/13 03:26:14;;;;;;;15.45;13.95;;;18.00;99.90;;;;;;5034596;28;20033;-73
2021/10/13 03:28:42;;;;;;;16.70;14.15;;;18.20;99.90;;;;;;5016821;28;20037;-73
2021/10/13 03:31:10;;;;;;;15.65;14.13;;;18.20;99.90;;;;;;5017143;28;20033;-73
2021/10/13 03:33:37;;;;;;;17.35;14.30;;;18.10;99.90;;;;;;5034630;28;20056;-73
2021/10/13 03:36:07;;;;;;;17.05;15.55;;;17.90;99.90;;;;;;5034415;28;20021;-73
2021/10/13 03:38:35;;;;;;;17.80;15.88;;;18.00;99.90;;;;;;5034430;28;20041;-73
2021/10/13 03:41:02;;;;;;;16.70;15.32;;;18.00;99.90;;;;;;5034446;28;20062;-73
2021/10/13 03:43:29;;;;;;;17.65;15.98;;;18.20;99.90;;;;;;5034340;28;20028;-73
2021/10/13 03:45:57;;;;;;;15.18;13.77;;;18.30;99.90;;;;;;5034245;28;20025;-73
2021/10/13 03:48:27;;;;;;;15.90;14.27;;;18.30;99.90;;;;;;5016493;28;20025;-73
2021/10/13 03:50:54;;;;;;;16.00;14.50;;;18.30;99.90;;;;;;5034236;28;20604;-73
2021/10/13 03:53:22;;;;;;;17.88;14.77;;;18.20;99.90;;;;;;5034163;28;20595;-73
2021/10/13 03:55:49;;;;;;;16.85;15.15;;;18.20;99.90;;;;;;5034054;28;20025;-72
2021/10/13 03:58:16;;;;;;;17.10;15.48;;;18.40;99.90;;;;;;5034115;28;20022;-73
2021/10/13 04:00:43;;;;;;;17.23;15.50;;;18.30;99.90;;;;;;5016279;28;20032;-73
2021/10/13 04:03:11;;;;;;;16.70;15.27;;;18.10;99.90;;;;;;5034101;28;20470;-73
2021/10/13 04:05:38;;;;;;;17.13;15.55;;;17.90;99.90;;;;;;5033653;28;20049;-72
2021/10/13 04:08:09;;;;;;;16.58;15.20;;;17.90;99.90;;;;;;5033907;28;20359;-72
2021/10/13 04:10:36;;;;;;;15.43;14.27;;;18.00;99.90;;;;;;5033814;28;20017;-73
2021/10/13 04:13:03;;;;;;;16.52;14.90;;;17.90;99.90;;;;;;5033705;28;20478;-72
2021/10/13 04:15:30;;;;;;;16.42;14.77;;;17.70;99.90;;;;;;5033849;28;20433;-73
2021/10/13 04:17:58;;;;;;;16.65;14.77;;;17.70;99.90;;;;;;5015953;28;20076;-73
2021/10/13 04:20:25;;;;;;;16.50;14.93;;;17.50;99.90;;;;;;5033602;28;20084;-72
2021/10/13 04:22:53;;;;;;;16.65;15.30;;;17.40;99.90;;;;;;5015788;28;20121;-72
2021/10/13 04:25:20;;;;;;;17.65;16.02;;;17.30;99.90;;;;;;5033362;28;20049;-72
2021/10/13 04:27:47;;;;;;;17.55;15.88;;;17.50;99.90;;;;;;5032947;28;20045;-73
2021/10/13 04:30:16;;;;;;;16.10;14.63;;;17.50;99.90;;;;;;5033354;28;20021;-72
2021/10/13 04:32:44;;;;;;;16.88;15.65;;;17.50;99.90;;;;;;5033442;28;20024;-73
2021/10/13 04:35:12;;;;;;;15.52;14.30;;;17.40;99.90;;;;;;5033417;28;20057;-73
2021/10/13 04:37:39;;;;;;;14.30;13.30;;;17.30;99.90;;;;;;5015541;28;20041;-73
2021/10/13 04:40:07;;;;;;;14.85;13.80;;;17.20;99.90;;;;;;5033375;28;20493;-72
2021/10/13 04:42:35;;;;;;;15.57;14.60;;;17.10;99.90;;;;;;5015470;28;20043;-72
2021/10/13 04:45:04;;;;;;;15.35;14.23;;;17.10;99.90;;;;;;5033160;28;20018;-72
2021/10/13 04:47:32;;;;;;;15.98;14.77;;;17.30;99.90;;;;;;5015367;28;20156;-72
2021/10/13 04:49:59;;;;;;;16.63;15.18;;;17.40;99.90;;;;;;5015285;28;20433;-71
2021/10/13 04:52:26;;;;;;;14.90;13.50;;;17.40;99.90;;;;;;5032974;28;20026;-72
2021/10/13 04:54:53;;;;;;;14.00;13.00;;;17.40;99.90;;;;;;5032956;28;20079;-71
2021/10/13 04:57:21;;;;;;;13.07;12.02;;;17.40;99.90;;;;;;5015093;28;20124;-73
2021/10/13 04:59:48;;;;;;;12.30;11.50;;;17.40;99.90;;;;;;5033135;28;20143;-73
2021/10/13 05:02:15;;;;;;;12.57;11.75;;;17.40;99.90;;;;;;5032787;28;20037;-73
2021/10/13 05:04:43;;;;;;;13.00;12.30;;;17.40;99.90;;;;;;5032489;28;20096;-72
2021/10/13 05:07:10;;;;;;;12.50;11.80;;;17.50;99.90;;;;;;5014989;28;20091;-72
2021/10/13 05:09:37;;;;;;;13.77;12.77;;;17.40;99.90;;;;;;5015039;28;20082;-73
2021/10/13 05:12:05;;;;;;;12.13;11.40;;;17.40;99.90;;;;;;5015099;28;20029;-73
2021/10/13 05:14:32;;;;;;;12.80;11.95;;;17.40;99.90;;;;;;5032633;28;20021;-72
2021/10/13 05:16:59;;;;;;;12.02;11.20;;;17.50;99.90;;;;;;5032705;28;20494;-72
2021/10/13 05:19:27;;;;;;;12.32;11.65;;;17.50;99.90;;;;;;5032739;28;20355;-72
2021/10/13 05:21:54;;;;;;;12.98;12.10;;;17.30;99.90;;;;;;5032727;28;20053;-73
2021/10/13 05:24:21;;;;;;;12.25;11.55;;;17.30;99.90;;;;;;5032847;28;20057;-73
2021/10/13 05:26:49;;;;;;;13.27;11.98;;;17.10;99.90;;;;;;5032627;28;20102;-72
2021/10/13 05:29:16;;;;;;;13.20;12.10;;;17.20;99.90;;;;;;5032616;28;20124;-73
2021/10/13 05:31:43;;;;;;;13.98;12.68;;;17.20;99.90;;;;;;5014764;28;20120;-72
2021/10/13 05:34:11;;;;;;;14.07;12.75;;;17.30;99.90;;;;;;5032471;28;20021;-72
2021/10/13 05:36:38;;;;;;;13.82;11.93;;;17.30;99.90;;;;;;5032498;28;20030;-73
2021/10/13 05:39:05;;;;;;;13.25;11.90;;;17.30;99.90;;;;;;5036314;28;20025;-73
2021/10/13 05:41:33;;;;;;;12.80;11.77;;;17.40;99.90;;;;;;5036473;28;20017;-73
2021/10/13 05:44:00;;;;;;;14.65;11.68;;;17.40;99.90;;;;;;5018641;28;20028;-72
2021/10/13 05:46:27;;;;;;;12.80;11.70;;;17.40;99.90;;;;;;5036460;28;20453;-73
2021/10/13 05:48:55;;;;;;;12.45;11.45;;;17.40;99.90;;;;;;5036418;28;20021;-73
2021/10/13 05:51:22;;;;;;;13.00;11.80;;;17.40;99.90;;;;;;5036630;28;20112;-72
2021/10/13 05:53:49;;;;;;;11.60;10.68;;;17.40;99.90;;;;;;5036375;28;20367;-72
2021/10/13 05:56:17;;;;;;;12.20;11.02;;;17.20;99.90;;;;;;5036034;28;20470;-72
2021/10/13 05:58:44;;;;;;;13.20;11.25;;;17.30;99.90;;;;;;5036038;28;20076;-72
2021/10/13 06:01:11;;;;;;;12.05;10.98;;;17.50;99.90;;;;;;5035942;28;20029;-73
2021/10/13 06:03:39;;;;;;;12.35;11.18;;;17.40;99.90;;;;;;5035976;28;20022;-72
2021/10/13 06:06:06;;;;;;;12.27;11.07;;;17.40;99.90;;;;;;5017982;28;20136;-72
2021/10/13 06:08:34;;;;;;;12.98;11.65;;;17.50;99.90;;;;;;5018128;28;20123;-72
2021/10/13 06:11:01;;;;;;;14.05;11.77;;;17.50;99.90;;;;;;5018169;28;20036;-72
2021/10/13 06:13:29;;;;;;;12.15;10.88;;;17.40;99.90;;;;;;5035851;28;20057;-72
2021/10/13 06:15:57;;;;;;;14.55;11.70;;;17.30;99.90;;;;;;5035870;28;20033;-72
2021/10/13 06:18:24;;;;;;;14.13;11.05;;;17.20;99.90;;;;;;5035966;28;20024;-72
2021/10/13 06:20:51;;;;;;;14.35;11.32;;;17.20;99.90;;;;;;5035606;28;20564;-72
2021/10/13 06:23:18;;;;;;;12.05;10.70;;;17.30;99.90;;;;;;5035790;28;20079;-71
2021/10/13 06:25:46;;;;;;;11.68;10.68;;;17.30;99.90;;;;;;5035675;28;20109;-72
2021/10/13 06:28:13;;;;;;;10.75;9.90;;;17.40;99.90;;;;;;5017956;28;20029;-72
2021/10/13 06:30:42;;;;;;;11.40;10.35;;;17.60;99.90;;;;;;5035898;28;20180;-71
2021/10/13 06:33:09;;;;;;;10.63;9.63;;;17.80;99.90;;;;;;5035607;28;20513;-72
2021/10/13 06:35:37;;;;;;;10.15;9.35;;;17.70;99.90;;;;;;5034466;28;20049;-72
2021/10/13 06:38:04;;;;;;;9.93;9.32;;;17.80;99.90;;;;;;5035409;28;20036;-72
2021/10/13 06:40:32;;;;;;;10.07;9.38;;;17.70;99.90;;;;;;5017633;28;20025;-72
2021/10/13 06:43:01;;;;;;;11.15;10.05;;;17.80;99.90;;;;;;5035384;28;20026;-72
2021/10/13 06:45:29;;;;;;;10.93;9.88;;;17.70;99.90;;;;;;5035360;28;20021;-72
2021/10/13 06:47:56;;;;;;;11.13;10.13;;;17.70;99.90;;;;;;5035341;28;20049;-72
2021/10/13 06:50:23;;;;;;;15.57;10.27;;;17.70;99.90;;;;;;5034463;28;20056;-72
2021/10/13 06:52:50;;;;;;;12.18;10.77;;;17.80;99.90;;;;;;5035251;28;20025;-72
2021/10/13 06:55:18;;;;;;;11.40;10.20;;;17.60;99.90;;;;;;5035250;28;20045;-72
2021/10/13 06:57:45;;;;;;;12.25;11.00;;;17.70;99.90;;;;;;5035127;28;20033;-72
2021/10/13 07:00:13;;;;;;;16.13;11.52;;;17.70;99.90;;;;;;5035232;28;20013;-72
2021/10/13 07:02:41;;;;;;;12.75;11.65;;;17.70;99.90;;;;;;5017450;28;20087;-71
2021/10/13 07:05:08;;;;;;;14.40;12.05;;;17.60;99.90;;;;;;5017076;28;20049;-71
2021/10/13 07:07:47;;;;;;;12.70;11.40;;;17.60;99.90;;;;;;5035070;28;20434;-71
2021/10/13 07:10:15;;;;;;;13.90;11.30;;;17.60;99.90;;;;;;5034947;28;20378;-71
2021/10/13 07:12:43;;;;;;;14.32;10.85;;;17.60;99.90;;;;;;5017201;28;20025;-70
2021/10/13 07:15:12;;;;;;;12.80;11.27;;;17.60;99.90;;;;;;5034952;28;20021;-70
2021/10/13 07:17:40;;;;;;;11.73;10.15;;;17.50;99.90;;;;;;5016895;28;20482;-70
2021/10/13 07:20:09;;;;;;;12.50;11.23;;;17.50;99.90;;;;;;5017029;28;20017;-70
2021/10/13 07:22:37;;;;;;;13.85;10.52;;;17.40;99.90;;;;;;5034761;28;20026;-70
2021/10/13 07:25:05;;;;;;;16.02;10.57;;;17.40;99.90;;;;;;5034657;28;20040;-70
2021/10/13 07:27:33;;;;;;;11.93;10.80;;;17.40;99.90;;;;;;5034682;28;20068;-71
2021/10/13 07:30:02;;;;;;;12.07;10.73;;;17.40;99.90;;;;;;5034692;28;20029;-71
2021/10/13 07:32:35;;;;;;;13.88;10.98;;;17.30;99.90;;;;;;5034625;28;20113;-71
2021/10/13 07:35:02;;;;;;;14.65;11.07;;;17.30;99.90;;;;;;5034505;28;20131;-71
2021/10/13 07:37:30;;;;;;;16.80;11.07;;;17.20;99.90;;;;;;5034436;28;20022;-72
2021/10/13 07:39:57;;;;;;;14.77;12.57;;;17.20;99.90;;;;;;5034334;28;20061;-71
2021/10/13 07:42:25;;;;;;;13.38;11.90;;;17.10;99.90;;;;;;5034330;28;20024;-70
2021/10/13 07:44:52;;;;;;;18.80;12.38;;;17.10;99.90;;;;;;5034153;28;20028;-71
2021/10/13 07:47:19;;;;;;;14.40;11.90;;;17.00;99.90;;;;;;5034046;28;20022;-71
2021/10/13 07:49:47;;;;;;;14.13;12.70;;;17.00;99.90;;;;;;5034248;28;20029;-70
2021/10/13 07:52:14;;;;;;;13.10;12.00;;;17.00;99.90;;;;;;5034173;28;20114;-69
2021/10/13 07:54:41;;;;;;;18.83;12.30;;;16.90;99.90;;;;;;5034113;28;20540;-70
2021/10/13 07:57:09;;;;;;;18.13;13.10;;;16.90;99.90;;;;;;5033979;28;20088;-70
2021/10/13 07:59:36;;;;;;;16.15;12.40;;;16.80;99.90;;;;;;5033832;28;20504;-70
2021/10/13 08:02:04;;;;;;;16.40;12.68;;;16.80;99.90;;;;;;5033791;28;20018;-71
2021/10/13 08:04:32;;;;;;;14.05;12.80;;;16.90;99.90;;;;;;5016033;28;20050;-70
2021/10/13 08:07:02;;;;;;;15.18;13.15;;;16.80;99.90;;;;;;5033894;28;20116;-71
2021/10/13 08:09:30;;;;;;;15.60;12.95;;;16.70;99.90;;;;;;5033917;28;20087;-71
2021/10/13 08:11:57;;;;;;;15.63;13.13;;;16.70;99.90;;;;;;5016142;28;20033;-71
2021/10/13 08:14:25;;;;;;;15.27;12.40;;;16.70;99.90;;;;;;5033716;28;20060;-72
2021/10/13 08:16:53;;;;;;;15.20;11.93;;;16.80;99.90;;;;;;5033505;28;20116;-72
2021/10/13 08:19:20;;;;;;;15.70;12.07;;;16.70;99.90;;;;;;5033704;28;20068;-72
2021/10/13 08:21:48;;;;;;;18.67;11.82;;;16.80;99.90;;;;;;5033554;28;20014;-72
2021/10/13 08:24:15;;;;;;;13.23;11.35;;;16.80;99.90;;;;;;5015732;28;20116;-71
2021/10/13 08:26:43;;;;;;;15.38;11.25;;;16.90;99.90;;;;;;5033003;28;20033;-72
2021/10/13 08:29:10;;;;;;;15.57;11.52;;;16.90;99.90;;;;;;5015637;28;20036;-71
2021/10/13 08:31:37;;;;;;;13.95;11.18;;;16.90;99.90;;;;;;5033459;28;20022;-71
2021/10/13 08:34:05;;;;;;;15.32;10.75;;;17.00;99.90;;;;;;5033331;28;20029;-71
2021/10/13 08:36:32;;;;;;;16.75;10.10;;;17.00;99.90;;;;;;5033127;28;20474;-72
2021/10/13 08:39:00;;;;;;;13.40;10.20;;;17.00;99.90;;;;;;5033241;28;20080;-71
2021/10/13 08:41:27;;;;;;;11.32;10.20;;;17.00;99.90;;;;;;5015461;28;20022;-71
2021/10/13 08:43:55;;;;;;;16.67;10.98;;;16.90;99.90;;;;;;5033094;28;20013;-71
2021/10/13 08:46:22;;;;;;;10.88;9.90;;;17.00;99.90;;;;;;5033139;28;20048;-73
2021/10/13 08:48:49;;;;;;;12.07;10.77;;;17.00;99.90;;;;;;5033119;28;20032;-73
2021/10/13 08:51:17;;;;;;;12.43;10.05;;;16.90;99.90;;;;;;5032935;28;20037;-72
2021/10/13 08:53:44;;;;;;;14.75;10.85;;;16.90;99.90;;;;;;5032945;28;20105;-73
2021/10/13 08:56:12;;;;;;;11.65;10.23;;;16.90;99.90;;;;;;5032783;28;20033;-73
2021/10/13 08:58:41;;;;;;;12.77;9.60;;;17.00;99.90;;;;;;5015443;28;20045;-72
2021/10/13 09:01:12;;;;;;;12.65;10.35;;;17.00;99.90;;;;;;5032774;28;20053;-72
2021/10/13 09:03:57;;;;;;;12.63;10.20;;;17.00;99.90;;;;;;5015074;28;20029;-74
2021/10/13 09:06:27;;;;;;;12.65;10.27;;;17.10;99.90;;;;;;5014906;28;20045;-74
2021/10/13 09:09:08;;;;;;;19.27;11.27;;;17.00;99.90;;;;;;5032795;28;20025;-73
2021/10/13 09:11:42;;;;;;;17.40;10.95;;;17.00;99.90;;;;;;5032705;28;20025;-73
2021/10/13 09:14:14;;;;;;;19.23;10.68;;;17.10;99.90;;;;;;5032796;28;20486;-72
2021/10/13 09:17:07;;;;;;;23.50;10.68;;;17.10;99.90;;;;;;5032566;28;20025;-71
2021/10/13 09:19:44;;;;;;;16.92;10.85;;;17.10;99.90;;;;;;5032622;28;20041;-72
2021/10/13 09:22:16;;;;;;;10.82;9.70;;;17.10;99.90;;;;;;5032683;28;20022;-73
2021/10/13 09:24:49;;;;;;;14.52;9.95;;;17.10;99.90;;;;;;5032634;28;20112;-71
2021/10/13 09:27:31;;;;;;;13.50;9.80;;;17.10;99.90;;;;;;5032608;28;20101;-73
2021/10/13 09:29:59;;;;;;;16.10;10.27;;;17.10;99.90;;;;;;5032557;28;20017;-73
2021/10/13 09:32:28;;;;;;;15.63;11.23;;;17.10;99.90;;;;;;5032398;28;20053;-74
2021/10/13 09:34:57;;;;;;;13.82;10.32;;;17.10;99.90;;;;;;5032438;28;20032;-75
2021/10/13 09:37:41;;;;;;;17.85;10.60;;;17.10;99.90;;;;;;5014703;28;20429;-74
2021/10/13 09:40:09;;;;;;;13.75;10.63;;;17.10;99.90;;;;;;5032551;28;20014;-74
2021/10/13 09:42:41;;;;;;;15.45;10.95;;;17.20;99.90;;;;;;5032575;28;20021;-75
2021/10/13 09:45:13;;;;;;;21.23;11.15;;;17.20;99.90;;;;;;5032523;28;20049;-76
2021/10/13 09:47:40;;;;;;;18.48;11.23;;;17.20;99.90;;;;;;5032777;28;20018;-75
2021/10/13 09:50:10;;;;;;;16.58;10.95;;;17.20;99.90;;;;;;5014978;28;20065;-74
2021/10/13 09:52:38;;;;;;;14.52;10.95;;;17.20;99.90;;;;;;5032552;28;20048;-74
2021/10/13 09:55:12;;;;;;;13.98;10.68;;;17.20;99.90;;;;;;5032588;28;20394;-74
2021/10/13 09:57:48;;;;;;;16.38;9.98;;;17.10;99.90;;;;;;5032387;28;20033;-74
2021/10/13 10:00:27;;;;;;;14.40;10.50;;;17.10;99.90;;;;;;5032271;28;20467;-72
2021/10/13 10:02:57;;;;;;;14.60;10.40;;;17.10;99.90;;;;;;5014533;28;20021;-74
2021/10/13 10:05:34;;;;;;;14.48;10.48;;;17.20;99.90;;;;;;5031931;28;20057;-74
2021/10/13 10:08:09;;;;;;;15.27;9.93;;;17.10;99.90;;;;;;5032507;28;20033;-75
2021/10/13 10:10:38;;;;;;;16.63;10.95;;;17.20;99.90;;;;;;5032807;28;20062;-74
2021/10/13 10:13:06;;;;;;;13.23;10.40;;;17.10;99.90;;;;;;5014812;28;20028;-74
2021/10/13 10:15:46;;;;;;;15.60;10.73;;;17.20;99.90;;;;;;5014947;28;20026;-74
2021/10/13 10:18:31;;;;;;;;;;;17.10;99.90;;;;;;5032736;28;20025;-74
2021/10/13 10:21:26;;;;;;;14.52;11.40;;;17.10;99.90;;;;;;5014270;28;19916;-71
2021/10/13 10:24:24;;;;;;;14.40;10.68;;;17.10;99.90;;;;;;5032171;28;20025;-72
2021/10/13 10:26:52;;;;;;;18.13;11.45;;;17.10;99.90;;;;;;5035705;28;20440;-74
2021/10/13 10:29:20;;;;;;;14.93;10.90;;;17.00;99.90;;;;;;5035718;28;20028;-74
2021/10/13 10:31:59;;;;;;;14.65;11.80;;;17.00;99.90;;;;;;5017894;28;20067;-73
2021/10/13 10:34:26;;;;;;;14.35;11.73;;;17.10;99.90;;;;;;5035543;28;20040;-73
2021/10/13 10:36:57;;;;;;;19.80;12.35;;;17.00;99.90;;;;;;5035377;28;20529;-73
2021/10/13 10:39:57;;;;;;;12.40;11.00;;;17.00;99.90;;;;;;5035668;28;20064;-74
2021/10/13 10:42:50;;;;;;;16.00;12.70;;;16.90;99.90;;;;;;5017702;28;20057;-74
2021/10/13 10:45:28;;;;;;;13.75;11.85;;;16.90;99.90;;;;;;5035233;28;20069;-74
2021/10/13 10:48:02;;;;;;;14.23;11.85;;;16.80;99.90;;;;;;5035382;28;20455;-74
2021/10/13 10:50:29;;;;;;;16.48;11.95;;;16.80;99.90;;;;;;5035268;28;20394;-73
2021/10/13 10:53:17;;;;;;;14.05;12.48;;;16.70;99.90;;;;;;5035291;28;20017;-72
2021/10/13 10:55:46;;;;;;;15.40;13.07;;;16.70;99.90;;;;;;5035276;28;20097;-74
2021/10/13 10:58:19;;;;;;;14.23;12.80;;;16.60;99.90;;;;;;5035056;28;20036;-73
2021/10/13 11:00:57;;;;;;;15.02;13.10;;;16.50;99.90;;;;;;5035187;28;20022;-72
2021/10/13 11:03:27;;;;;;;16.92;12.73;;;16.40;99.90;;;;;;5017363;28;20026;-73
2021/10/13 11:05:55;;;;;;;14.45;12.90;;;16.30;99.90;;;;;;5034841;28;20060;-72
2021/10/13 11:08:23;;;;;;;15.63;13.32;;;16.30;99.90;;;;;;5034962;28;20025;-73
2021/10/13 11:10:50;;;;;;;16.35;14.07;;;16.30;99.90;;;;;;5035010;28;20124;-72
2021/10/13 11:13:24;;;;;;;17.27;14.23;;;16.30;99.90;;;;;;5034959;28;20014;-73
2021/10/13 11:15:51;;;;;;;16.08;14.48;;;16.30;99.90;;;;;;5034849;28;20022;-72
2021/10/13 11:18:19;;;;;;;15.55;14.10;;;16.40;99.90;;;;;;5016938;28;20052;-73
2021/10/13 11:20:47;;;;;;;18.23;14.18;;;16.40;99.90;;;;;;5034674;28;20425;-73
2021/10/13 11:23:16;;;;;;;15.75;14.32;;;16.40;99.90;;;;;;5034723;28;20017;-72
2021/10/13 11:25:43;;;;;;;16.30;14.73;;;16.40;99.90;;;;;;5034823;28;20022;-73
2021/10/13 11:28:14;;;;;;;16.35;14.43;;;16.40;99.90;;;;;;5034401;28;20091;-74
2021/10/13 11:30:47;;;;;;;15.68;14.13;;;16.40;99.90;;;;;;5034706;28;20037;-74
2021/10/13 11:33:17;;;;;;;18.80;14.45;;;16.40;99.90;;;;;;5034454;28;20017;-75
2021/10/13 11:35:46;;;;;;;17.83;15.00;;;16.40;99.90;;;;;;5016283;28;20026;-74
2021/10/13 11:38:18;;;;;;;17.60;14.95;;;16.30;99.90;;;;;;5034328;28;20033;-74
2021/10/13 11:40:47;;;;;;;19.70;14.85;;;16.30;99.90;;;;;;5034380;28;20021;-75
2021/10/13 11:43:18;;;;;;;17.83;14.38;;;16.40;99.90;;;;;;5016396;28;20021;-74
2021/10/13 11:45:50;;;;;;;24.23;15.40;;;16.40;99.90;;;;;;5016399;28;20108;-74
2021/10/13 11:48:32;;;;;;;20.02;14.50;;;16.40;99.90;;;;;;5034184;28;20022;-73
2021/10/13 11:51:02;;;;;;;21.35;15.57;;;16.50;99.90;;;;;;5034049;28;20500;-73
2021/10/13 11:53:30;;;;;;;21.90;15.13;;;16.50;99.90;;;;;;5034128;28;20018;-73
2021/10/13 11:55:58;;;;;;;16.98;15.25;;;16.50;99.90;;;;;;5016206;28;20029;-73
2021/10/13 11:58:30;;;;;;;18.77;16.20;;;16.60;99.90;;;;;;5016254;28;20079;-73
2021/10/13 12:00:59;;;;;;;20.90;15.70;;;16.60;99.90;;;;;;5033983;28;20025;-73
2021/10/13 12:03:38;;;;;;;18.30;15.57;;;16.60;99.90;;;;;;5033940;28;20056;-74
2021/10/13 12:06:06;;;;;;;17.55;14.82;;;16.60;99.90;;;;;;5033712;28;20049;-74
2021/10/13 12:08:38;;;;;;;18.60;14.85;;;16.60;99.90;;;;;;5033723;28;20124;-74
2021/10/13 12:11:21;;;;;;;17.30;14.38;;;16.70;99.90;;;;;;5033750;28;20386;-73
2021/10/13 12:13:52;;;;;;;21.20;15.80;;;16.70;99.90;;;;;;5034029;28;20029;-73
2021/10/13 12:16:26;;;;;;;20.85;14.50;;;16.70;99.90;;;;;;5033690;28;20096;-73
2021/10/13 12:18:58;;;;;;;16.75;13.85;;;16.70;99.90;;;;;;5015909;28;20037;-74
2021/10/13 12:21:29;;;;;;;19.35;13.60;;;16.70;99.90;;;;;;5015969;28;20029;-74
2021/10/13 12:24:07;;;;;;;16.48;14.68;;;16.70;99.90;;;;;;5033641;28;20022;-73
2021/10/13 12:26:42;;;;;;;18.50;14.23;;;16.70;99.90;;;;;;5034081;28;20053;-73
2021/10/13 12:29:13;;;;;;;15.13;13.52;;;16.60;99.90;;;;;;5016058;28;20028;-73
2021/10/13 12:31:42;;;;;;;17.92;14.23;;;16.60;99.90;;;;;;5033560;28;20044;-73
2021/10/13 12:34:16;;;;;;;16.05;14.35;;;16.60;99.90;;;;;;5033417;28;20093;-73
2021/10/13 12:36:54;;;;;;;18.05;14.40;;;16.60;99.90;;;;;;5033309;28;20028;-73
2021/10/13 12:39:28;;;;;;;21.63;14.32;;;16.60;99.90;;;;;;5033278;28;20389;-74
2021/10/13 12:42:16;;;;;;;15.07;13.38;;;16.60;99.90;;;;;;5033286;28;20013;-74
2021/10/13 12:44:43;;;;;;;17.85;14.32;;;16.60;99.90;;;;;;5033257;28;20018;-73